Ladd AAF Airfield Fairbanks/Ft Wainwright US
ICAO: PAFB
IATA:
Category: Medium
Scheduled Services:

Elevation: 454 ft
TransAlt. 18000 ft.

Airport Communications:
FAIRBANKS APP:125.35
ATIS:134.25
CTAF:125
FAIRBANKS DEP:125.35
FAIRBANKS RDO:25.54
GND:121.7
MEDIVAC OPS:142.35
BASE OPS:118.9
PMSV METRO:128.8
TWR:125

PAFB Zoom In..

Runways:

(A) RW 07L length 8575 ft width 150 ft
---- / hdg 68

(B) RW 07R length 7280 ft width 75 ft
---- / hdg 68

(C) RW 25L length 7280 ft width 75 ft
---- / hdg 248

(D) RW 25R length 8575 ft width 150 ft
---- / hdg 248

Location; PAFB
Day. 04 / Time. 01.58 Zulu
* Altimeter: 29.71
* Temperature: 16° c. 60.8°f.
* Wind from: 130° Speed 04 kn.
Dewpoint: 14° c.
Visibility: 10 Statute Miles.
Clouds: Broken 2000 ft.
Clouds: Overcast 2600 ft.
Clouds: Broken 00 ft.
Clouds: Overcast 00 ft.

PAFB 040158Z AUTO 13004KT 10SM BKN020 OVC026 16/14 A2971 RMK AO2 CIG 016V023 BKN V OVC SLP063

Going to: --> -->


Wind From 130°
Speed 04 kn.

 
 
jpsmedia worldairports.se 2020   terms of use